createdAt,value
2019-03-08T00:02:26.176Z,33.47
2019-03-08T00:04:56.650Z,34.50
2019-03-08T00:07:27.079Z,35.10
2019-03-08T00:09:57.716Z,35.23
2019-03-08T00:12:38.997Z,36.50
2019-03-08T00:15:11.218Z,37.23
2019-03-08T00:17:44.013Z,35.13
2019-03-08T00:20:14.701Z,35.17
2019-03-08T00:22:45.123Z,32.20
2019-03-08T00:25:17.063Z,31.47
2019-03-08T00:27:47.468Z,30.63
2019-03-08T00:30:17.881Z,30.03
2019-03-08T00:32:48.514Z,29.70
2019-03-08T00:35:18.942Z,28.37
2019-03-08T00:37:50.078Z,29.80
2019-03-08T00:40:20.483Z,28.50
2019-03-08T00:42:50.909Z,27.50
2019-03-08T00:45:21.732Z,30.17
2019-03-08T00:47:52.141Z,28.67
2019-03-08T00:50:24.301Z,26.37
2019-03-08T00:52:54.723Z,29.33
2019-03-08T00:55:25.157Z,25.97
2019-03-08T00:57:55.862Z,26.77
2019-03-08T01:00:27.314Z,26.70
2019-03-08T01:02:57.827Z,26.17
2019-03-08T01:05:30.168Z,25.63
2019-03-08T01:08:00.666Z,25.53
2019-03-08T01:10:31.294Z,25.50
2019-03-08T01:13:01.789Z,25.20
2019-03-08T01:15:32.257Z,25.23
2019-03-08T01:18:02.736Z,25.60
2019-03-08T01:20:33.197Z,28.03
2019-03-08T01:23:04.426Z,28.17
2019-03-08T01:25:36.332Z,27.63
2019-03-08T01:28:09.876Z,27.27
2019-03-08T01:30:41.200Z,28.57
2019-03-08T01:33:13.240Z,28.53
2019-03-08T01:35:44.861Z,29.40
2019-03-08T01:38:15.278Z,29.83
2019-03-08T01:40:45.722Z,32.80
2019-03-08T01:43:17.018Z,31.90
2019-03-08T01:45:48.614Z,34.10
2019-03-08T01:48:19.075Z,31.40
2019-03-08T01:50:50.407Z,31.77
2019-03-08T01:53:22.382Z,31.37
2019-03-08T01:55:53.833Z,33.53
2019-03-08T01:58:24.263Z,32.47
2019-03-08T02:00:54.731Z,33.27
2019-03-08T02:03:25.699Z,31.90
2019-03-08T02:05:56.096Z,32.63
2019-03-08T02:08:34.737Z,32.20
2019-03-08T02:11:05.199Z,32.53
2019-03-08T02:13:37.070Z,32.20
2019-03-08T02:16:07.615Z,34.50
2019-03-08T02:18:39.625Z,34.20
2019-03-08T02:21:10.091Z,32.60
2019-03-08T02:23:40.504Z,31.87
2019-03-08T02:26:10.998Z,32.37
2019-03-08T02:28:41.439Z,34.30
2019-03-08T02:31:11.864Z,33.50
2019-03-08T02:33:42.287Z,30.70
2019-03-08T02:36:14.015Z,33.17
2019-03-08T02:38:44.423Z,31.13
2019-03-08T02:41:14.901Z,33.07
2019-03-08T02:43:45.375Z,30.70
2019-03-08T02:46:15.826Z,32.57
2019-03-08T02:48:46.818Z,32.30
2019-03-08T02:51:18.533Z,31.50
2019-03-08T02:53:48.974Z,29.57
2019-03-08T02:56:20.054Z,30.27
2019-03-08T02:58:51.454Z,30.17
2019-03-08T03:01:23.183Z,29.17
2019-03-08T03:03:53.715Z,27.73
2019-03-08T03:06:27.269Z,28.20
2019-03-08T03:08:57.812Z,26.13
2019-03-08T03:11:29.831Z,28.07
2019-03-08T03:14:00.261Z,27.50
2019-03-08T03:16:30.860Z,26.83
2019-03-08T03:19:02.253Z,28.57
2019-03-08T03:21:32.694Z,27.47
2019-03-08T03:24:03.234Z,25.07
2019-03-08T03:26:33.754Z,25.70
2019-03-08T03:29:04.166Z,24.13
2019-03-08T03:31:34.653Z,26.10
2019-03-08T03:34:06.613Z,23.97
2019-03-08T03:36:37.147Z,24.77
2019-03-08T03:39:07.619Z,24.37
2019-03-08T03:41:38.092Z,23.53
2019-03-08T03:44:08.592Z,25.70
2019-03-08T03:46:39.067Z,24.57
2019-03-08T03:49:09.547Z,25.63
2019-03-08T03:51:40.067Z,25.17
2019-03-08T03:54:10.571Z,25.13
2019-03-08T03:56:40.984Z,24.80
2019-03-08T03:59:11.454Z,23.07
2019-03-08T04:01:43.519Z,24.03
2019-03-08T04:04:13.979Z,22.40
2019-03-08T04:06:44.390Z,24.53
2019-03-08T04:09:14.901Z,23.90
2019-03-08T04:11:45.336Z,22.93
2019-03-08T04:14:15.836Z,22.57
2019-03-08T04:16:46.445Z,21.87
2019-03-08T04:19:16.905Z,22.80
2019-03-08T04:21:47.343Z,23.63
2019-03-08T04:24:17.776Z,23.07
2019-03-08T04:26:49.781Z,24.37
2019-03-08T04:29:21.156Z,23.83
2019-03-08T04:31:51.592Z,22.87
2019-03-08T04:34:39.113Z,22.73
2019-03-08T04:37:09.517Z,23.40
2019-03-08T04:39:39.971Z,22.17
2019-03-08T04:42:10.417Z,22.20
2019-03-08T04:44:41.460Z,23.00
2019-03-08T04:47:13.395Z,20.17
2019-03-08T04:49:43.988Z,19.70
2019-03-08T04:52:14.375Z,19.37
2019-03-08T04:54:44.785Z,19.87
2019-03-08T04:57:15.157Z,19.60
2019-03-08T04:59:46.647Z,19.00
2019-03-08T05:02:17.871Z,20.40
2019-03-08T05:04:48.321Z,19.13
2019-03-08T05:07:18.797Z,19.37
2019-03-08T05:09:49.256Z,20.13
2019-03-08T05:12:19.780Z,21.20
2019-03-08T05:14:50.315Z,18.83
2019-03-08T05:17:22.867Z,18.63
2019-03-08T05:19:54.569Z,18.57
2019-03-08T05:22:29.730Z,19.53
2019-03-08T05:25:02.693Z,19.40
2019-03-08T05:27:33.603Z,19.07
2019-03-08T05:30:04.798Z,19.83
2019-03-08T05:32:38.540Z,20.27
2019-03-08T05:35:09.889Z,20.03
2019-03-08T05:37:43.404Z,19.37
2019-03-08T05:40:17.807Z,18.67
2019-03-08T05:42:48.461Z,18.77
2019-03-08T05:45:20.409Z,19.73
2019-03-08T05:47:51.561Z,18.50
2019-03-08T05:50:28.660Z,18.60
2019-03-08T05:52:59.278Z,19.03
2019-03-08T05:58:21.322Z,20.50
2019-03-08T06:00:53.341Z,20.73
2019-03-08T06:03:29.218Z,20.77
2019-03-08T06:06:07.684Z,20.47
2019-03-08T06:08:41.189Z,19.03
2019-03-08T06:11:12.080Z,20.93
2019-03-08T06:13:42.618Z,19.70
2019-03-08T06:16:14.203Z,20.70
2019-03-08T06:18:46.092Z,20.00
2019-03-08T06:21:17.951Z,19.43
2019-03-08T06:23:53.348Z,18.80
2019-03-08T06:26:24.445Z,18.70
2019-03-08T06:29:00.332Z,19.23
2019-03-08T06:31:32.315Z,17.30
2019-03-08T06:34:10.234Z,17.83
2019-03-08T06:36:42.214Z,18.67
2019-03-08T06:39:15.177Z,19.30
2019-03-08T06:41:47.861Z,17.33
2019-03-08T06:47:09.842Z,16.67
2019-03-08T06:49:43.304Z,14.70
2019-03-08T06:52:14.078Z,18.77
2019-03-08T06:57:36.284Z,18.07
2019-03-08T07:00:34.146Z,18.23
2019-03-08T07:03:07.933Z,17.40
2019-03-08T07:05:41.521Z,16.17
2019-03-08T07:08:13.673Z,17.03
2019-03-08T07:10:49.293Z,18.00
2019-03-08T07:13:28.828Z,17.03
2019-03-08T07:16:14.955Z,16.93
2019-03-08T07:18:46.571Z,17.20
2019-03-08T07:24:33.014Z,16.60
2019-03-08T07:27:25.487Z,17.17
2019-03-08T07:30:13.932Z,16.93
2019-03-08T07:32:51.248Z,15.73
2019-03-08T07:35:55.551Z,15.57
2019-03-08T07:38:58.287Z,15.73
2019-03-08T07:41:37.714Z,14.97
2019-03-08T07:44:38.959Z,14.90
2019-03-08T07:47:49.486Z,13.37
2019-03-08T07:50:05.474Z,13.47
2019-03-08T07:52:55.292Z,12.60
2019-03-08T07:55:47.527Z,12.53
2019-03-08T07:58:37.079Z,11.40
2019-03-08T08:01:21.869Z,12.37
2019-03-08T08:04:11.865Z,11.63
2019-03-08T08:06:59.401Z,11.40
2019-03-08T08:09:46.678Z,11.27
2019-03-08T08:12:24.326Z,11.03
2019-03-08T08:15:02.752Z,10.53
2019-03-08T08:20:40.498Z,9.07
2019-03-08T08:23:21.433Z,6.70
2019-03-08T08:26:11.636Z,7.90
2019-03-08T08:29:12.904Z,7.97
2019-03-08T08:32:06.353Z,9.13
2019-03-08T08:34:41.335Z,7.87
2019-03-08T08:37:31.606Z,7.00
2019-03-08T08:40:22.886Z,6.57
2019-03-08T08:43:12.307Z,5.57
2019-03-08T08:46:09.515Z,6.27
2019-03-08T08:52:00.499Z,5.87
2019-03-08T08:54:43.842Z,6.83
2019-03-08T08:57:34.135Z,5.87
2019-03-08T09:00:19.608Z,5.10
2019-03-08T09:03:20.140Z,4.87
2019-03-08T09:06:02.092Z,5.20
2019-03-08T09:08:53.689Z,3.83
2019-03-08T09:11:52.515Z,4.30
2019-03-08T09:14:53.949Z,5.30
2019-03-08T09:17:41.812Z,5.33
2019-03-08T09:20:32.586Z,5.40
2019-03-08T09:23:20.755Z,4.50
2019-03-08T09:26:11.965Z,4.50
2019-03-08T09:28:45.740Z,4.50
2019-03-08T09:31:35.265Z,4.17
2019-03-08T09:34:19.269Z,4.67
2019-03-08T09:36:56.981Z,4.67
2019-03-08T09:39:47.252Z,4.00
2019-03-08T09:42:38.582Z,4.47
2019-03-08T09:45:21.412Z,4.23
2019-03-08T09:48:00.933Z,3.77
2019-03-08T09:50:49.044Z,5.37
2019-03-08T09:53:25.662Z,4.80
2019-03-08T09:56:01.242Z,4.10
2019-03-08T09:58:35.742Z,3.57
2019-03-08T10:01:23.855Z,4.20
2019-03-08T10:04:08.995Z,4.80
2019-03-08T10:06:49.917Z,4.93
2019-03-08T10:09:41.021Z,4.80
2019-03-08T10:12:18.749Z,5.60
2019-03-08T10:15:01.748Z,4.73
2019-03-08T10:17:43.866Z,5.13
2019-03-08T10:20:30.767Z,6.00
2019-03-08T10:23:19.948Z,5.30
2019-03-08T10:25:47.669Z,4.87
2019-03-08T10:28:27.721Z,6.03
2019-03-08T10:31:02.899Z,5.90
2019-03-08T10:33:46.925Z,5.50
2019-03-08T10:36:42.040Z,5.70
2019-03-08T10:39:35.602Z,5.17
2019-03-08T10:42:23.644Z,4.70
2019-03-08T10:45:02.617Z,5.77
2019-03-08T10:47:55.781Z,4.67
2019-03-08T10:50:21.201Z,5.80
2019-03-08T10:52:58.504Z,5.50
2019-03-08T10:55:49.335Z,5.17
2019-03-08T10:58:29.959Z,4.00
2019-03-08T11:01:08.136Z,3.73
2019-03-08T11:03:55.807Z,4.90
2019-03-08T11:06:34.035Z,5.40
2019-03-08T11:09:08.230Z,6.37
2019-03-08T11:11:49.209Z,5.87
2019-03-08T11:14:37.264Z,5.40
2019-03-08T11:17:28.208Z,6.20
2019-03-08T11:20:26.658Z,6.30
2019-03-08T11:23:11.689Z,6.83
2019-03-08T11:25:53.083Z,7.47
2019-03-08T11:28:51.188Z,5.90
2019-03-08T11:32:05.314Z,6.47
2019-03-08T11:34:13.290Z,5.90
2019-03-08T11:36:56.012Z,6.40
2019-03-08T11:39:45.365Z,5.53
2019-03-08T11:42:25.915Z,6.23
2019-03-08T11:45:07.442Z,5.63
2019-03-08T11:48:05.043Z,6.03
2019-03-08T11:50:46.616Z,6.37
2019-03-08T11:53:40.299Z,8.80
2019-03-08T11:56:21.560Z,9.70
2019-03-08T11:59:02.913Z,9.37
2019-03-08T12:01:39.264Z,9.77
2019-03-08T12:04:24.660Z,8.90
2019-03-08T12:07:10.580Z,9.80
2019-03-08T12:10:02.922Z,9.60
2019-03-08T12:12:51.234Z,10.60
2019-03-08T12:15:39.052Z,9.07
2019-03-08T12:18:29.328Z,8.33
2019-03-08T12:21:02.722Z,6.93
2019-03-08T12:23:39.043Z,6.63
2019-03-08T12:26:30.991Z,7.10
2019-03-08T12:29:12.744Z,8.23
2019-03-08T12:31:46.294Z,7.23
2019-03-08T12:34:39.083Z,7.40
2019-03-08T12:37:20.218Z,7.23
2019-03-08T12:39:57.010Z,6.20
2019-03-08T12:42:44.380Z,6.37
2019-03-08T12:45:20.809Z,5.83
2019-03-08T12:47:59.218Z,7.33
2019-03-08T12:50:34.252Z,5.63
2019-03-08T12:53:26.838Z,5.63
2019-03-08T12:56:23.319Z,5.60
2019-03-08T12:59:01.155Z,6.07
2019-03-08T13:02:09.784Z,6.20
2019-03-08T13:05:06.654Z,6.77
2019-03-08T13:10:59.006Z,9.70
2019-03-08T13:13:34.325Z,16.33
2019-03-08T13:16:07.398Z,6.07
2019-03-08T13:18:50.393Z,5.17
2019-03-08T13:22:10.760Z,5.07
2019-03-08T13:24:06.854Z,5.57
2019-03-08T13:26:52.142Z,6.73
2019-03-08T13:29:25.202Z,7.03
2019-03-08T13:31:52.939Z,6.37
2019-03-08T13:34:24.842Z,26.10
2019-03-08T13:36:59.977Z,13.73
2019-03-08T13:39:45.703Z,9.30
2019-03-08T13:42:44.694Z,10.10
2019-03-08T13:45:16.787Z,12.90
2019-03-08T13:49:55.455Z,9.43
2019-03-08T13:50:50.745Z,18.70
2019-03-08T13:53:21.873Z,11.80
2019-03-08T13:56:04.126Z,9.90
2019-03-08T14:02:27.114Z,8.87
2019-03-08T14:05:12.078Z,12.90
2019-03-08T14:09:56.169Z,8.30
2019-03-08T14:10:42.581Z,9.57
2019-03-08T14:13:15.922Z,6.60
2019-03-08T14:15:46.539Z,6.90
2019-03-08T14:18:21.382Z,6.60
2019-03-08T14:20:52.395Z,5.70
2019-03-08T14:23:22.866Z,7.63
2019-03-08T14:25:53.615Z,5.37
2019-03-08T14:28:25.288Z,5.40
2019-03-08T14:31:13.957Z,5.10
2019-03-08T14:33:44.677Z,5.27
2019-03-08T14:36:15.226Z,5.10
2019-03-08T14:39:08.011Z,5.40
2019-03-08T14:41:40.940Z,4.90
2019-03-08T14:44:13.333Z,4.53
2019-03-08T14:46:45.506Z,4.50
2019-03-08T16:44:36.591Z,5.33
2019-03-08T20:50:19.728Z,4.50
2019-03-08T20:52:50.385Z,4.60
2019-03-08T20:55:20.804Z,4.87
2019-03-08T20:57:53.754Z,4.80
2019-03-08T21:00:28.607Z,5.03
2019-03-08T21:03:02.290Z,4.87
2019-03-08T21:05:38.820Z,4.50
2019-03-08T21:08:09.423Z,4.70
2019-03-08T21:10:41.663Z,4.63
2019-03-08T21:13:18.311Z,4.47
2019-03-08T21:15:55.534Z,9.00
2019-03-08T21:18:25.477Z,4.60
2019-03-08T21:20:56.203Z,4.17
2019-03-08T21:23:26.835Z,4.40
2019-03-08T21:25:58.448Z,4.17
2019-03-08T21:28:29.021Z,4.07
2019-03-08T21:33:51.544Z,4.27
2019-03-08T21:36:21.772Z,4.50
2019-03-08T21:38:52.651Z,4.30
2019-03-08T21:41:24.023Z,4.63
2019-03-08T21:43:54.604Z,4.40
2019-03-08T21:46:25.096Z,4.27
2019-03-08T21:48:55.539Z,5.20
2019-03-08T21:51:26.115Z,4.50
2019-03-08T21:54:03.220Z,4.37
2019-03-08T21:56:33.750Z,4.43
2019-03-08T21:59:24.730Z,4.53
2019-03-08T22:01:47.997Z,4.63
2019-03-08T22:04:30.359Z,4.27
2019-03-08T22:07:00.567Z,4.83
2019-03-08T22:09:43.459Z,3.70
2019-03-08T22:12:26.928Z,4.27
2019-03-08T22:15:00.365Z,4.70
2019-03-08T22:17:52.454Z,4.30
2019-03-08T22:20:32.030Z,3.90
2019-03-08T22:23:05.780Z,3.70
2019-03-08T22:25:37.898Z,3.73
2019-03-08T22:28:14.346Z,4.00
2019-03-08T22:30:51.888Z,4.07
2019-03-08T22:33:24.188Z,3.40
2019-03-08T22:35:57.101Z,4.10
2019-03-08T22:38:27.573Z,3.53
2019-03-08T22:40:58.013Z,3.90
2019-03-08T22:43:28.498Z,3.80
2019-03-08T22:46:00.178Z,3.90
2019-03-08T22:48:30.628Z,3.47
2019-03-08T22:51:02.351Z,4.63
2019-03-08T22:53:34.447Z,3.50
2019-03-08T22:56:10.717Z,3.53
2019-03-08T22:58:43.605Z,4.17
2019-03-08T23:01:14.762Z,4.40
2019-03-08T23:03:45.249Z,3.90
2019-03-08T23:06:16.797Z,4.10
2019-03-08T23:08:47.241Z,4.07
2019-03-08T23:11:17.767Z,4.20
2019-03-08T23:13:48.231Z,4.20
2019-03-08T23:16:18.625Z,3.50
2019-03-08T23:18:49.072Z,3.93
2019-03-08T23:21:19.520Z,3.70
2019-03-08T23:26:42.415Z,4.10
2019-03-08T23:29:17.523Z,4.00
2019-03-08T23:32:00.628Z,3.87
2019-03-08T23:34:31.571Z,3.43
2019-03-08T23:37:01.919Z,3.50
2019-03-08T23:39:32.401Z,3.63
2019-03-08T23:42:02.869Z,4.07
2019-03-08T23:44:33.297Z,4.00
2019-03-08T23:47:04.647Z,3.70
2019-03-08T23:49:35.011Z,3.47
2019-03-08T23:52:21.439Z,4.40
2019-03-08T23:54:51.898Z,4.40
2019-03-08T23:57:25.059Z,3.90
2019-03-08T23:59:55.542Z,4.03
